createdAt,value
2023-05-25T00:01:09.112Z,9.40
2023-05-25T00:03:36.641Z,9.50
2023-05-25T00:06:04.130Z,9.60
2023-05-25T00:08:31.404Z,9.40
2023-05-25T00:10:58.893Z,9.40
2023-05-25T00:13:26.016Z,9.30
2023-05-25T00:15:53.193Z,9.20
2023-05-25T00:18:20.317Z,9.10
2023-05-25T00:20:47.943Z,9.10
2023-05-25T00:23:15.360Z,9.10
2023-05-25T00:25:42.857Z,9.10
2023-05-25T00:28:12.130Z,9.00
2023-05-25T00:30:39.287Z,9.00
2023-05-25T00:33:06.540Z,9.00
2023-05-25T00:35:33.515Z,9.10
2023-05-25T00:38:00.779Z,9.00
2023-05-25T00:40:28.623Z,9.00
2023-05-25T00:42:56.318Z,8.80
2023-05-25T00:45:23.341Z,8.60
2023-05-25T00:47:52.731Z,8.60
2023-05-25T00:50:37.641Z,8.50
2023-05-25T00:53:06.499Z,8.60
2023-05-25T00:55:42.040Z,8.50
2023-05-25T00:58:11.635Z,8.50
2023-05-25T01:00:41.809Z,8.50
2023-05-25T01:03:21.843Z,8.50
2023-05-25T01:05:51.500Z,8.40
2023-05-25T01:08:21.956Z,8.50
2023-05-25T01:10:57.428Z,8.40
2023-05-25T01:13:24.815Z,8.40
2023-05-25T01:15:52.287Z,8.50
2023-05-25T01:18:19.320Z,8.40
2023-05-25T01:21:14.794Z,8.40
2023-05-25T01:23:56.317Z,8.30
2023-05-25T01:26:27.270Z,8.40
2023-05-25T01:28:56.998Z,8.30
2023-05-25T01:31:24.767Z,8.30
2023-05-25T01:33:53.905Z,8.40
2023-05-25T01:36:21.208Z,8.50
2023-05-25T01:38:49.090Z,8.40
2023-05-25T01:41:16.191Z,8.20
2023-05-25T01:43:43.513Z,8.00
2023-05-25T01:46:38.319Z,7.80
2023-05-25T01:49:14.311Z,7.80
2023-05-25T01:51:56.911Z,7.80
2023-05-25T01:54:36.403Z,7.70
2023-05-25T01:57:06.690Z,7.70
2023-05-25T01:59:35.553Z,7.80
2023-05-25T02:02:04.158Z,7.90
2023-05-25T02:04:31.618Z,7.90
2023-05-25T02:06:58.656Z,7.90
2023-05-25T02:09:26.137Z,8.00
2023-05-25T02:11:54.124Z,8.10
2023-05-25T02:14:21.254Z,7.90
2023-05-25T02:16:48.747Z,7.80
2023-05-25T02:19:16.500Z,7.60
2023-05-25T02:21:43.511Z,7.50
2023-05-25T02:24:11.375Z,7.40
2023-05-25T02:26:39.707Z,7.40
2023-05-25T02:29:07.059Z,7.50
2023-05-25T02:31:34.371Z,7.50
2023-05-25T02:34:01.858Z,7.50
2023-05-25T02:36:28.963Z,7.50
2023-05-25T02:38:56.230Z,7.50
2023-05-25T02:41:24.500Z,7.50
2023-05-25T02:43:51.492Z,7.30
2023-05-25T02:46:18.860Z,7.30
2023-05-25T02:48:47.341Z,7.30
2023-05-25T02:51:14.364Z,7.30
2023-05-25T02:53:41.686Z,7.30
2023-05-25T02:56:10.365Z,7.20
2023-05-25T02:58:38.666Z,7.30
2023-05-25T03:01:06.276Z,7.40
2023-05-25T03:03:33.366Z,7.30
2023-05-25T03:06:00.506Z,7.20
2023-05-25T03:08:27.577Z,7.20
2023-05-25T03:10:54.660Z,7.20
2023-05-25T03:13:21.834Z,7.20
2023-05-25T03:15:49.087Z,7.10
2023-05-25T03:18:16.321Z,7.10
2023-05-25T03:20:44.146Z,7.10
2023-05-25T03:23:11.651Z,7.10
2023-05-25T03:25:38.595Z,7.10
2023-05-25T03:28:05.536Z,7.10
2023-05-25T03:30:32.799Z,7.10
2023-05-25T03:32:59.777Z,7.00
2023-05-25T03:35:26.882Z,7.00
2023-05-25T03:37:54.003Z,7.00
2023-05-25T03:40:21.011Z,6.90
2023-05-25T03:42:48.210Z,6.80
2023-05-25T03:45:15.290Z,6.80
2023-05-25T03:47:42.419Z,6.90
2023-05-25T03:50:09.863Z,6.90
2023-05-25T03:52:37.233Z,6.60
2023-05-25T03:55:05.355Z,6.40
2023-05-25T03:57:32.815Z,6.40
2023-05-25T03:59:59.806Z,6.40
2023-05-25T04:02:26.922Z,6.40
2023-05-25T04:04:54.286Z,6.40
2023-05-25T04:07:21.322Z,6.40
2023-05-25T04:09:48.539Z,6.50
2023-05-25T04:12:15.677Z,6.70
2023-05-25T04:14:42.816Z,6.80
2023-05-25T04:17:09.840Z,6.90
2023-05-25T04:19:36.845Z,7.00
2023-05-25T04:22:04.515Z,7.10
2023-05-25T04:24:32.698Z,7.10
2023-05-25T04:27:00.247Z,7.20
2023-05-25T04:29:27.307Z,7.30
2023-05-25T04:31:54.947Z,7.40
2023-05-25T04:34:22.013Z,7.50
2023-05-25T04:36:49.999Z,7.50
2023-05-25T04:39:17.111Z,7.60
2023-05-25T04:41:44.445Z,7.60
2023-05-25T04:44:11.723Z,7.60
2023-05-25T04:46:39.186Z,7.70
2023-05-25T04:49:08.660Z,7.70
2023-05-25T04:51:37.210Z,7.80
2023-05-25T04:54:04.440Z,7.90
2023-05-25T04:56:31.674Z,8.00
2023-05-25T04:58:58.700Z,8.10
2023-05-25T05:01:26.507Z,8.20
2023-05-25T05:03:53.659Z,8.40
2023-05-25T05:06:21.790Z,8.50
2023-05-25T05:08:48.986Z,8.50
2023-05-25T05:11:16.041Z,8.40
2023-05-25T05:13:43.066Z,8.40
2023-05-25T05:16:10.217Z,8.30
2023-05-25T05:18:37.360Z,8.20
2023-05-25T05:21:04.685Z,8.20
2023-05-25T05:23:33.958Z,8.20
2023-05-25T05:26:00.982Z,8.10
2023-05-25T05:28:28.578Z,7.90
2023-05-25T05:30:55.772Z,7.70
2023-05-25T05:33:24.387Z,7.70
2023-05-25T05:35:52.830Z,7.80
2023-05-25T05:38:19.829Z,7.80
2023-05-25T05:40:46.813Z,8.00
2023-05-25T05:43:14.569Z,8.10
2023-05-25T05:45:41.815Z,8.20
2023-05-25T05:48:10.052Z,8.30
2023-05-25T05:50:41.984Z,8.50
2023-05-25T05:53:10.204Z,8.60
2023-05-25T05:55:37.501Z,8.70
2023-05-25T05:58:04.641Z,8.80
2023-05-25T06:00:32.052Z,8.90
2023-05-25T06:03:01.121Z,9.10
2023-05-25T06:05:28.454Z,9.10
2023-05-25T06:07:55.704Z,9.10
2023-05-25T06:10:22.935Z,9.10
2023-05-25T06:12:50.161Z,9.20
2023-05-25T06:15:17.235Z,9.40
2023-05-25T06:17:44.394Z,9.50
2023-05-25T06:20:11.890Z,9.60
2023-05-25T06:22:38.938Z,9.60
2023-05-25T06:25:06.486Z,9.60
2023-05-25T06:27:33.703Z,9.70
2023-05-25T06:30:00.707Z,9.90
2023-05-25T06:32:27.778Z,10.10
2023-05-25T06:34:55.603Z,10.30
2023-05-25T06:37:22.641Z,10.50
2023-05-25T06:39:49.596Z,10.70
2023-05-25T06:42:16.705Z,10.80
2023-05-25T06:44:43.685Z,10.80
2023-05-25T06:47:10.828Z,10.70
2023-05-25T06:49:38.052Z,10.70
2023-05-25T06:52:05.232Z,10.80
2023-05-25T06:54:33.722Z,11.10
2023-05-25T06:57:01.402Z,11.20
2023-05-25T06:59:28.730Z,11.40
2023-05-25T07:01:56.517Z,11.60
2023-05-25T07:04:23.854Z,11.70
2023-05-25T07:06:52.214Z,11.90
2023-05-25T07:09:19.525Z,12.10
2023-05-25T07:11:46.497Z,12.20
2023-05-25T07:14:13.670Z,12.50
2023-05-25T07:16:40.835Z,12.70
2023-05-25T07:19:07.898Z,12.90
2023-05-25T07:21:34.849Z,13.10
2023-05-25T07:24:02.008Z,13.20
2023-05-25T07:26:29.044Z,13.30
2023-05-25T07:28:56.237Z,13.50
2023-05-25T07:31:23.336Z,13.70
2023-05-25T07:33:50.865Z,13.80
2023-05-25T07:36:18.024Z,13.90
2023-05-25T07:38:45.553Z,14.10
2023-05-25T07:41:13.798Z,14.20
2023-05-25T07:43:40.943Z,14.20
2023-05-25T07:46:08.145Z,14.40
2023-05-25T07:48:35.622Z,14.60
2023-05-25T07:51:02.607Z,14.90
2023-05-25T07:53:29.623Z,15.10
2023-05-25T07:55:56.615Z,15.30
2023-05-25T07:58:24.036Z,15.50
2023-05-25T08:00:51.830Z,15.60
2023-05-25T08:03:26.193Z,15.90
2023-05-25T08:05:59.171Z,16.00
2023-05-25T08:08:26.552Z,16.30
2023-05-25T08:10:53.698Z,16.30
2023-05-25T08:13:20.886Z,16.20
2023-05-25T08:15:49.791Z,16.30
2023-05-25T08:18:16.875Z,16.50
2023-05-25T08:20:44.159Z,16.30
2023-05-25T08:23:11.346Z,16.50
2023-05-25T08:25:38.382Z,16.80
2023-05-25T08:28:05.455Z,17.00
2023-05-25T08:30:33.997Z,16.80
2023-05-25T08:33:01.332Z,16.90
2023-05-25T08:35:28.632Z,17.30
2023-05-25T08:37:55.691Z,17.20
2023-05-25T08:40:26.966Z,17.40
2023-05-25T08:42:54.150Z,17.30
2023-05-25T08:45:34.086Z,17.20
2023-05-25T08:48:04.744Z,17.30
2023-05-25T08:50:33.960Z,17.70
2023-05-25T08:53:05.222Z,17.60
2023-05-25T08:55:37.664Z,17.70
2023-05-25T08:58:19.581Z,18.00
2023-05-25T09:00:53.704Z,18.10
2023-05-25T09:03:20.984Z,17.90
2023-05-25T09:05:48.622Z,17.90
2023-05-25T09:08:17.241Z,17.90
2023-05-25T09:10:44.673Z,18.00
2023-05-25T09:13:20.544Z,18.10
2023-05-25T09:15:49.599Z,18.10
2023-05-25T09:18:16.727Z,18.10
2023-05-25T09:20:46.586Z,18.20
2023-05-25T09:23:15.962Z,18.40
2023-05-25T09:25:44.164Z,18.80
2023-05-25T09:30:41.608Z,19.30
2023-05-25T09:33:19.491Z,19.40
2023-05-25T09:35:48.741Z,19.50
2023-05-25T09:38:17.156Z,19.90
2023-05-25T09:40:45.431Z,20.10
2023-05-25T09:43:22.017Z,20.60
2023-05-25T09:45:56.142Z,20.50
2023-05-25T09:48:24.556Z,20.50
2023-05-25T09:50:52.254Z,20.30
2023-05-25T09:53:21.611Z,20.60
2023-05-25T09:55:54.190Z,20.90
2023-05-25T09:58:25.019Z,21.00
2023-05-25T10:00:55.840Z,20.90
2023-05-25T10:03:23.219Z,20.80
2023-05-25T10:05:51.227Z,20.80
2023-05-25T10:08:20.460Z,21.10
2023-05-25T10:10:50.170Z,20.90
2023-05-25T10:13:24.410Z,21.40
2023-05-25T10:15:54.090Z,21.40
2023-05-25T10:18:26.622Z,21.50
2023-05-25T10:21:04.088Z,21.70
2023-05-25T10:23:37.495Z,22.20
2023-05-25T10:26:06.604Z,22.10
2023-05-25T10:28:39.479Z,22.10
2023-05-25T10:31:09.345Z,22.40
2023-05-25T10:33:37.702Z,22.20
2023-05-25T10:38:35.497Z,22.40
2023-05-25T10:41:05.945Z,22.20
2023-05-25T10:43:33.288Z,22.10
2023-05-25T10:46:01.085Z,22.50
2023-05-25T10:48:51.810Z,22.60
2023-05-25T10:51:22.281Z,22.30
2023-05-25T10:54:01.409Z,22.60
2023-05-25T10:56:28.652Z,22.60
2023-05-25T10:58:56.921Z,22.60
2023-05-25T11:01:24.110Z,22.50
2023-05-25T11:04:15.594Z,21.70
2023-05-25T11:06:45.826Z,21.60
2023-05-25T11:09:32.888Z,22.10
2023-05-25T11:12:04.071Z,21.70
2023-05-25T11:14:37.997Z,21.60
2023-05-25T11:17:22.850Z,21.90
2023-05-25T11:19:52.160Z,22.40
2023-05-25T11:22:32.420Z,22.90
2023-05-25T11:25:00.758Z,22.80
2023-05-25T11:27:29.804Z,23.20
2023-05-25T11:29:58.714Z,23.20
2023-05-25T11:32:29.382Z,22.60
2023-05-25T11:34:58.517Z,22.90
2023-05-25T11:37:29.143Z,23.10
2023-05-25T11:39:56.669Z,23.00
2023-05-25T11:42:25.087Z,23.20
2023-05-25T11:44:52.207Z,23.50
2023-05-25T11:47:23.430Z,23.50
2023-05-25T11:49:50.708Z,22.70
2023-05-25T11:52:19.891Z,22.30
2023-05-25T11:54:47.555Z,21.90
2023-05-25T11:57:25.257Z,21.90
2023-05-25T12:00:02.279Z,21.90
2023-05-25T12:02:38.642Z,21.70
2023-05-25T12:05:10.092Z,21.40
2023-05-25T12:07:46.771Z,20.90
2023-05-25T12:10:16.760Z,20.70
2023-05-25T12:12:49.676Z,20.40
2023-05-25T12:15:24.896Z,20.00
2023-05-25T12:17:54.183Z,19.70
2023-05-25T12:20:22.206Z,19.50
2023-05-25T12:22:49.589Z,19.40
2023-05-25T12:25:22.024Z,19.30
2023-05-25T12:27:49.151Z,19.00
2023-05-25T12:30:16.826Z,18.80
2023-05-25T12:33:02.878Z,18.60
2023-05-25T12:35:43.956Z,18.50
2023-05-25T12:38:12.183Z,18.30
2023-05-25T12:40:39.503Z,18.40
2023-05-25T12:43:06.634Z,18.60
2023-05-25T12:45:34.015Z,19.00
2023-05-25T12:48:02.310Z,19.10
2023-05-25T12:50:29.753Z,19.30
2023-05-25T12:53:02.802Z,19.50
2023-05-25T12:55:31.944Z,19.70
2023-05-25T12:58:03.482Z,20.20
2023-05-25T13:00:36.089Z,20.40
2023-05-25T13:03:04.642Z,20.90
2023-05-25T13:05:37.032Z,21.50
2023-05-25T13:08:05.372Z,21.70
2023-05-25T13:10:33.459Z,21.80
2023-05-25T13:13:01.374Z,22.10
2023-05-25T13:15:29.076Z,21.70
2023-05-25T13:17:58.970Z,20.90
2023-05-25T13:20:27.349Z,21.20
2023-05-25T13:22:56.038Z,21.60
2023-05-25T13:25:25.596Z,21.50
2023-05-25T13:27:53.383Z,21.20
2023-05-25T13:30:22.284Z,21.00
2023-05-25T13:32:51.326Z,20.80
2023-05-25T13:35:24.173Z,21.10
2023-05-25T13:37:51.573Z,20.80
2023-05-25T13:40:19.223Z,20.30
2023-05-25T13:42:46.507Z,19.90
2023-05-25T13:45:14.085Z,19.50
2023-05-25T13:47:44.063Z,19.30
2023-05-25T13:50:11.744Z,19.60
2023-05-25T13:52:38.757Z,19.70
2023-05-25T13:55:06.540Z,20.10
2023-05-25T13:57:33.731Z,20.20
2023-05-25T14:00:00.665Z,20.30
2023-05-25T14:02:28.015Z,20.20
2023-05-25T14:04:55.313Z,20.30
2023-05-25T14:07:24.195Z,20.40
2023-05-25T14:09:51.150Z,20.00
2023-05-25T14:12:18.360Z,19.90
2023-05-25T14:14:45.570Z,19.70
2023-05-25T14:17:12.742Z,19.40
2023-05-25T14:19:39.757Z,19.40
2023-05-25T14:24:36.910Z,19.60
2023-05-25T14:27:05.037Z,19.50
2023-05-25T14:29:32.088Z,19.70
2023-05-25T14:31:59.417Z,19.60
2023-05-25T14:34:26.856Z,19.80
2023-05-25T14:36:53.921Z,19.80
2023-05-25T14:39:20.967Z,19.80
2023-05-25T14:41:48.180Z,19.80
2023-05-25T14:44:15.362Z,19.80
2023-05-25T14:46:42.336Z,20.00
2023-05-25T14:49:09.617Z,20.00
2023-05-25T14:51:37.298Z,20.00
2023-05-25T14:54:06.352Z,19.90
2023-05-25T14:56:33.650Z,19.50
2023-05-25T14:59:00.899Z,19.40
2023-05-25T15:01:29.380Z,19.70
2023-05-25T15:03:57.289Z,19.90
2023-05-25T15:06:24.562Z,20.10
2023-05-25T15:08:51.663Z,20.00
2023-05-25T15:11:18.875Z,19.90
2023-05-25T15:13:46.347Z,20.00
2023-05-25T15:16:14.731Z,19.90
2023-05-25T15:18:41.947Z,19.80
2023-05-25T15:21:09.370Z,19.50
2023-05-25T15:23:36.745Z,19.40
2023-05-25T15:26:07.783Z,19.40
2023-05-25T15:28:35.239Z,19.20
2023-05-25T15:31:03.534Z,19.20
2023-05-25T15:33:43.604Z,19.00
2023-05-25T15:36:15.814Z,18.90
2023-05-25T15:38:43.494Z,18.90
2023-05-25T15:41:11.585Z,19.00
2023-05-25T15:43:38.555Z,19.40
2023-05-25T15:46:05.743Z,19.40
2023-05-25T15:48:32.736Z,19.60
2023-05-25T15:50:59.887Z,19.70
2023-05-25T15:53:27.126Z,19.90
2023-05-25T15:55:54.107Z,19.70
2023-05-25T15:58:21.112Z,19.50
2023-05-25T16:00:48.110Z,19.60
2023-05-25T16:03:15.115Z,19.80
2023-05-25T16:05:42.211Z,19.90
2023-05-25T16:08:09.540Z,19.90
2023-05-25T16:10:36.533Z,20.20
2023-05-25T16:13:03.505Z,20.20
2023-05-25T16:15:30.545Z,20.10
2023-05-25T16:17:57.597Z,19.70
2023-05-25T16:20:24.659Z,19.20
2023-05-25T16:22:51.849Z,18.90
2023-05-25T16:25:19.140Z,18.60
2023-05-25T16:27:46.153Z,18.20
2023-05-25T16:30:13.787Z,18.10
2023-05-25T16:32:40.979Z,17.80
2023-05-25T16:35:08.316Z,17.70
2023-05-25T16:37:35.635Z,17.70
2023-05-25T16:40:02.763Z,17.70
2023-05-25T16:42:29.799Z,17.80
2023-05-25T16:44:56.777Z,17.80
2023-05-25T16:47:23.821Z,17.90
2023-05-25T16:49:50.927Z,17.90
2023-05-25T16:52:18.094Z,17.90
2023-05-25T16:54:45.345Z,17.90
2023-05-25T16:57:12.324Z,17.80
2023-05-25T16:59:39.837Z,17.80
2023-05-25T17:02:07.493Z,17.80
2023-05-25T17:04:34.698Z,17.70
2023-05-25T17:07:01.729Z,17.70
2023-05-25T17:09:28.672Z,17.60
2023-05-25T17:11:59.496Z,17.60
2023-05-25T17:14:26.739Z,17.40
2023-05-25T17:16:53.906Z,17.20
2023-05-25T17:19:20.853Z,17.20
2023-05-25T17:21:48.247Z,17.20
2023-05-25T17:24:15.278Z,17.10
2023-05-25T17:26:42.238Z,16.70
2023-05-25T17:29:09.588Z,16.70
2023-05-25T17:31:36.712Z,16.80
2023-05-25T17:34:03.945Z,16.80
2023-05-25T17:36:30.901Z,16.70
2023-05-25T17:38:58.059Z,16.80
2023-05-25T17:41:25.250Z,16.50
2023-05-25T17:43:52.214Z,16.40
2023-05-25T17:46:19.686Z,16.40
2023-05-25T17:48:46.673Z,16.50
2023-05-25T17:51:14.218Z,16.50
2023-05-25T17:53:41.380Z,16.50
2023-05-25T17:56:08.850Z,16.50
2023-05-25T17:58:36.524Z,16.50
2023-05-25T18:01:03.997Z,16.30
2023-05-25T18:03:31.572Z,16.50
2023-05-25T18:05:58.767Z,16.60
2023-05-25T18:08:26.239Z,16.60
2023-05-25T18:10:53.488Z,16.60
2023-05-25T18:13:20.690Z,16.50
2023-05-25T18:15:48.109Z,16.50
2023-05-25T18:18:16.610Z,16.50
2023-05-25T18:20:43.797Z,16.40
2023-05-25T18:23:10.855Z,16.30
2023-05-25T18:25:38.037Z,16.20
2023-05-25T18:28:05.106Z,16.20
2023-05-25T18:30:32.124Z,16.20
2023-05-25T18:32:59.453Z,16.30
2023-05-25T18:35:26.469Z,16.30
2023-05-25T18:37:53.545Z,16.20
2023-05-25T18:40:20.628Z,16.20
2023-05-25T18:42:47.582Z,16.30
2023-05-25T18:45:15.043Z,16.10
2023-05-25T18:47:42.237Z,16.30
2023-05-25T18:50:10.765Z,16.30
2023-05-25T18:52:38.057Z,16.20
2023-05-25T18:55:08.941Z,16.00
2023-05-25T18:57:36.211Z,15.90
2023-05-25T19:00:03.919Z,15.90
2023-05-25T19:02:31.034Z,15.80
2023-05-25T19:04:58.483Z,15.70
2023-05-25T19:07:25.566Z,15.50
2023-05-25T19:09:52.833Z,15.40
2023-05-25T19:12:20.035Z,15.30
2023-05-25T19:14:47.073Z,15.10
2023-05-25T19:17:14.184Z,14.90
2023-05-25T19:19:41.347Z,14.90
2023-05-25T19:22:08.540Z,14.90
2023-05-25T19:24:35.513Z,14.80
2023-05-25T19:27:02.713Z,14.70
2023-05-25T19:29:29.638Z,14.60
2023-05-25T19:31:56.628Z,14.50
2023-05-25T19:34:23.791Z,14.30
2023-05-25T19:36:59.636Z,14.20
2023-05-25T19:39:28.154Z,14.20
2023-05-25T19:41:55.185Z,14.10
2023-05-25T19:44:22.223Z,14.00
2023-05-25T19:46:49.291Z,14.00
2023-05-25T19:49:16.264Z,13.90
2023-05-25T19:51:43.449Z,13.70
2023-05-25T19:54:11.091Z,13.40
2023-05-25T19:56:38.090Z,13.20
2023-05-25T19:59:05.432Z,13.00
2023-05-25T20:01:32.535Z,12.80
2023-05-25T20:03:59.727Z,12.60
2023-05-25T20:06:26.713Z,12.40
2023-05-25T20:08:54.082Z,12.30
2023-05-25T20:11:21.244Z,12.20
2023-05-25T20:13:49.782Z,12.10
2023-05-25T20:16:17.384Z,11.90
2023-05-25T20:18:45.698Z,11.80
2023-05-25T20:21:12.726Z,11.70
2023-05-25T20:23:39.863Z,11.60
2023-05-25T20:26:07.046Z,11.50
2023-05-25T20:28:34.224Z,11.40
2023-05-25T20:31:01.556Z,11.40
2023-05-25T20:33:28.578Z,11.30
2023-05-25T20:35:55.649Z,11.20
2023-05-25T20:38:22.614Z,11.10
2023-05-25T20:40:50.150Z,11.10
2023-05-25T20:43:17.560Z,11.00
2023-05-25T20:45:44.872Z,11.00
2023-05-25T20:48:12.049Z,11.00
2023-05-25T20:50:39.317Z,11.00
2023-05-25T20:53:06.434Z,10.90
2023-05-25T20:55:33.477Z,10.80
2023-05-25T20:58:01.896Z,10.70
2023-05-25T21:00:28.953Z,10.60
2023-05-25T21:02:56.064Z,10.60
2023-05-25T21:05:23.241Z,10.60
2023-05-25T21:07:51.496Z,10.50
2023-05-25T21:10:18.534Z,10.50
2023-05-25T21:12:45.582Z,10.40
2023-05-25T21:15:12.903Z,10.30
2023-05-25T21:17:39.939Z,10.30
2023-05-25T21:20:07.809Z,10.30
2023-05-25T21:22:34.978Z,10.30
2023-05-25T21:25:02.089Z,10.30
2023-05-25T21:27:29.068Z,10.20
2023-05-25T21:29:56.323Z,10.20
2023-05-25T21:32:23.588Z,10.10
2023-05-25T21:34:50.720Z,10.10
2023-05-25T21:37:17.986Z,10.00
2023-05-25T21:39:45.060Z,10.00
2023-05-25T21:42:12.068Z,9.90
2023-05-25T21:44:39.276Z,9.90
2023-05-25T21:47:06.333Z,9.80
2023-05-25T21:49:33.826Z,9.80
2023-05-25T21:52:00.921Z,9.80
2023-05-25T21:54:28.100Z,9.70
2023-05-25T21:56:55.258Z,9.60
2023-05-25T21:59:22.491Z,9.60
2023-05-25T22:01:49.712Z,9.50
2023-05-25T22:04:16.709Z,9.40
2023-05-25T22:06:43.661Z,9.40
2023-05-25T22:09:10.790Z,9.40
2023-05-25T22:11:38.661Z,9.50
2023-05-25T22:14:06.254Z,9.50
2023-05-25T22:16:33.588Z,9.40
2023-05-25T22:19:00.782Z,9.50
2023-05-25T22:21:27.803Z,9.50
2023-05-25T22:23:54.891Z,9.40
2023-05-25T22:26:22.932Z,9.20
2023-05-25T22:28:49.961Z,8.90
2023-05-25T22:31:17.061Z,8.90
2023-05-25T22:33:44.230Z,9.10
2023-05-25T22:36:11.252Z,9.10
2023-05-25T22:38:38.233Z,9.10
2023-05-25T22:41:05.434Z,9.20
2023-05-25T22:43:32.369Z,9.10
2023-05-25T22:45:59.405Z,9.10
2023-05-25T22:48:27.174Z,9.20
2023-05-25T22:50:54.380Z,9.20
2023-05-25T22:53:21.626Z,9.20
2023-05-25T22:55:49.571Z,9.10
2023-05-25T22:58:17.289Z,9.00
2023-05-25T23:00:44.345Z,8.90
2023-05-25T23:03:11.677Z,8.80
2023-05-25T23:05:38.713Z,8.70
2023-05-25T23:08:05.815Z,8.70
2023-05-25T23:10:33.258Z,8.70
2023-05-25T23:13:00.298Z,8.70
2023-05-25T23:15:28.745Z,8.70
2023-05-25T23:17:55.847Z,8.70
2023-05-25T23:20:22.861Z,8.80
2023-05-25T23:22:50.060Z,8.80
2023-05-25T23:25:17.169Z,8.90
2023-05-25T23:27:44.142Z,8.70
2023-05-25T23:30:11.643Z,8.70
2023-05-25T23:32:38.755Z,8.70
2023-05-25T23:35:06.632Z,8.80
2023-05-25T23:37:33.670Z,8.80
2023-05-25T23:40:00.675Z,8.80
2023-05-25T23:42:28.543Z,8.80
2023-05-25T23:44:55.865Z,8.80
2023-05-25T23:47:22.858Z,8.80
2023-05-25T23:49:50.002Z,8.80
2023-05-25T23:52:17.001Z,8.70
2023-05-25T23:54:44.198Z,8.80
2023-05-25T23:57:11.216Z,8.70
2023-05-25T23:59:38.378Z,8.70
